createdAt,value
2022-12-20T00:01:28.436Z,4.57
2022-12-20T00:04:31.092Z,4.63
2022-12-20T00:07:35.185Z,3.92
2022-12-20T00:10:37.937Z,4.90
2022-12-20T00:13:40.540Z,4.57
2022-12-20T00:16:43.184Z,4.38
2022-12-20T00:19:45.878Z,3.85
2022-12-20T00:22:49.859Z,4.47
2022-12-20T00:25:52.744Z,4.70
2022-12-20T00:28:55.406Z,3.88
2022-12-20T00:31:58.074Z,4.05
2022-12-20T00:35:00.699Z,4.45
2022-12-20T00:38:04.757Z,4.32
2022-12-20T00:41:09.339Z,4.28
2022-12-20T00:44:12.529Z,4.32
2022-12-20T00:47:15.214Z,4.25
2022-12-20T00:50:18.013Z,4.93
2022-12-20T00:53:26.356Z,4.72
2022-12-20T00:56:29.392Z,4.35
2022-12-20T00:59:32.059Z,4.63
2022-12-20T01:02:34.836Z,4.70
2022-12-20T01:05:37.548Z,4.80
2022-12-20T01:08:41.636Z,4.32
2022-12-20T01:11:44.544Z,4.18
2022-12-20T01:14:47.173Z,4.60
2022-12-20T01:17:49.938Z,4.30
2022-12-20T01:21:01.423Z,4.15
2022-12-20T01:24:05.695Z,4.60
2022-12-20T01:27:08.399Z,4.00
2022-12-20T01:30:11.616Z,4.30
2022-12-20T01:33:14.477Z,4.55
2022-12-20T01:36:17.588Z,4.22
2022-12-20T01:39:21.591Z,4.75
2022-12-20T01:42:24.188Z,3.88
2022-12-20T01:45:28.674Z,3.33
2022-12-20T01:48:31.854Z,4.25
2022-12-20T01:51:36.932Z,4.32
2022-12-20T01:54:43.449Z,3.92
2022-12-20T01:57:47.997Z,4.30
2022-12-20T02:00:50.776Z,4.30
2022-12-20T02:03:55.191Z,3.45
2022-12-20T02:06:58.089Z,4.60
2022-12-20T02:10:02.938Z,3.83
2022-12-20T02:13:08.844Z,3.88
2022-12-20T02:16:14.288Z,4.40
2022-12-20T02:19:27.998Z,4.43
2022-12-20T02:22:34.460Z,4.07
2022-12-20T02:25:44.648Z,3.95
2022-12-20T02:28:59.946Z,3.63
2022-12-20T02:32:06.740Z,3.83
2022-12-20T02:35:10.982Z,4.07
2022-12-20T02:38:27.877Z,3.95
2022-12-20T02:41:32.994Z,4.10
2022-12-20T02:44:55.306Z,3.53
2022-12-20T02:48:01.623Z,3.65
2022-12-20T02:51:06.912Z,3.53
2022-12-20T02:54:09.731Z,3.67
2022-12-20T02:57:15.085Z,4.10
2022-12-20T03:00:19.580Z,3.47
2022-12-20T03:03:24.221Z,4.15
2022-12-20T03:06:27.582Z,3.53
2022-12-20T03:09:31.845Z,4.38
2022-12-20T03:12:34.658Z,3.90
2022-12-20T03:15:37.598Z,3.83
2022-12-20T03:18:41.829Z,3.90
2022-12-20T03:21:44.691Z,3.75
2022-12-20T03:24:49.065Z,4.07
2022-12-20T03:27:52.126Z,3.35
2022-12-20T03:30:54.994Z,3.05
2022-12-20T03:33:59.358Z,2.97
2022-12-20T03:37:02.773Z,4.32
2022-12-20T03:40:06.433Z,3.30
2022-12-20T03:43:09.293Z,3.40
2022-12-20T03:46:12.069Z,4.18
2022-12-20T03:49:16.327Z,4.13
2022-12-20T03:52:23.843Z,3.78
2022-12-20T03:55:26.475Z,3.92
2022-12-20T03:58:29.266Z,3.72
2022-12-20T04:01:36.517Z,3.72
2022-12-20T04:04:40.726Z,3.53
2022-12-20T04:07:43.448Z,3.47
2022-12-20T04:10:59.963Z,3.88
2022-12-20T04:14:08.328Z,3.78
2022-12-20T04:17:11.444Z,3.42
2022-12-20T04:20:22.686Z,3.80
2022-12-20T04:23:35.087Z,4.40
2022-12-20T04:26:37.668Z,4.68
2022-12-20T04:29:40.619Z,4.00
2022-12-20T04:32:46.802Z,3.97
2022-12-20T04:35:51.789Z,3.95
2022-12-20T04:38:59.297Z,4.05
2022-12-20T04:42:01.987Z,4.13
2022-12-20T04:45:04.981Z,4.15
2022-12-20T04:48:36.944Z,3.90
2022-12-20T04:51:33.422Z,4.50
2022-12-20T04:54:35.776Z,3.67
2022-12-20T04:57:49.088Z,3.97
2022-12-20T05:00:53.038Z,3.92
2022-12-20T05:04:02.170Z,3.97
2022-12-20T05:07:10.006Z,4.20
2022-12-20T05:10:14.660Z,4.10
2022-12-20T05:13:17.747Z,4.45
2022-12-20T05:16:22.164Z,4.00
2022-12-20T05:19:25.203Z,4.47
2022-12-20T05:22:46.583Z,4.20
2022-12-20T05:26:05.111Z,4.28
2022-12-20T05:29:07.802Z,4.13
2022-12-20T05:32:10.923Z,4.22
2022-12-20T05:35:16.918Z,4.65
2022-12-20T05:38:23.977Z,4.07
2022-12-20T05:41:26.843Z,4.15
2022-12-20T05:44:29.590Z,4.43
2022-12-20T05:47:33.920Z,3.67
2022-12-20T05:50:43.976Z,3.60
2022-12-20T05:54:00.114Z,4.15
2022-12-20T05:57:18.110Z,3.67
2022-12-20T06:00:22.252Z,4.75
2022-12-20T06:03:27.608Z,4.13
2022-12-20T06:06:31.448Z,4.18
2022-12-20T06:09:36.141Z,3.97
2022-12-20T06:12:43.690Z,4.13
2022-12-20T06:15:47.290Z,3.92
2022-12-20T06:18:49.934Z,3.97
2022-12-20T06:21:53.379Z,3.83
2022-12-20T06:25:04.822Z,3.80
2022-12-20T06:28:07.973Z,4.25
2022-12-20T06:31:11.756Z,4.78
2022-12-20T06:34:18.049Z,4.13
2022-12-20T06:37:20.703Z,4.40
2022-12-20T06:40:24.705Z,4.05
2022-12-20T06:43:27.702Z,4.05
2022-12-20T06:46:31.000Z,3.90
2022-12-20T06:49:34.293Z,3.88
2022-12-20T06:52:41.009Z,4.22
2022-12-20T06:55:45.129Z,3.97
2022-12-20T06:58:47.806Z,3.45
2022-12-20T07:01:50.578Z,4.30
2022-12-20T07:04:54.156Z,4.47
2022-12-20T07:07:56.748Z,3.83
2022-12-20T07:11:06.527Z,4.38
2022-12-20T07:14:09.173Z,3.80
2022-12-20T07:17:11.910Z,4.28
2022-12-20T07:20:15.055Z,4.53
2022-12-20T07:23:18.912Z,4.25
2022-12-20T07:26:26.716Z,4.28
2022-12-20T07:29:29.438Z,3.90
2022-12-20T07:32:32.130Z,4.15
2022-12-20T07:35:35.023Z,4.40
2022-12-20T07:38:38.189Z,4.00
2022-12-20T07:41:42.419Z,3.47
2022-12-20T07:44:51.330Z,4.68
2022-12-20T07:47:54.149Z,4.20
2022-12-20T07:51:10.881Z,3.72
2022-12-20T07:54:34.906Z,4.00
2022-12-20T07:57:54.044Z,4.15
2022-12-20T08:01:17.173Z,3.72
2022-12-20T08:04:27.782Z,4.20
2022-12-20T08:07:33.491Z,3.60
2022-12-20T08:10:51.815Z,4.13
2022-12-20T08:14:20.275Z,4.68
2022-12-20T08:17:23.310Z,4.03
2022-12-20T08:20:26.263Z,4.30
2022-12-20T08:23:32.027Z,4.00
2022-12-20T08:26:38.150Z,4.05
2022-12-20T08:29:42.192Z,3.70
2022-12-20T08:32:44.834Z,3.90
2022-12-20T08:35:47.788Z,4.10
2022-12-20T08:38:50.484Z,4.10
2022-12-20T08:41:56.289Z,4.25
2022-12-20T08:45:01.967Z,4.60
2022-12-20T08:48:05.017Z,4.38
2022-12-20T08:51:11.335Z,4.30
2022-12-20T08:54:17.589Z,3.80
2022-12-20T08:57:20.343Z,3.58
2022-12-20T09:00:26.532Z,4.15
2022-12-20T09:03:30.890Z,3.72
2022-12-20T09:06:39.142Z,3.92
2022-12-20T09:09:41.826Z,4.05
2022-12-20T09:12:45.784Z,4.38
2022-12-20T09:15:52.510Z,4.55
2022-12-20T09:19:02.466Z,3.45
2022-12-20T09:22:07.351Z,4.18
2022-12-20T09:25:10.226Z,3.60
2022-12-20T09:28:12.879Z,4.25
2022-12-20T09:31:18.508Z,3.95
2022-12-20T09:34:21.306Z,3.83
2022-12-20T09:37:28.707Z,4.32
2022-12-20T09:40:32.652Z,4.00
2022-12-20T09:43:38.597Z,3.78
2022-12-20T09:46:43.451Z,4.38
2022-12-20T09:49:50.945Z,3.90
2022-12-20T09:52:59.020Z,3.80
2022-12-20T09:56:05.105Z,3.75
2022-12-20T09:59:12.841Z,4.10
2022-12-20T10:02:54.403Z,3.83
2022-12-20T10:05:48.251Z,3.97
2022-12-20T10:08:52.862Z,3.97
2022-12-20T10:12:01.322Z,3.45
2022-12-20T10:15:19.399Z,4.00
2022-12-20T10:18:29.141Z,3.92
2022-12-20T10:21:42.391Z,3.50
2022-12-20T10:24:46.437Z,3.47
2022-12-20T10:27:51.262Z,3.45
2022-12-20T10:30:58.114Z,3.58
2022-12-20T10:34:02.201Z,3.83
2022-12-20T10:37:18.355Z,3.33
2022-12-20T10:40:46.408Z,3.67
2022-12-20T10:43:58.538Z,3.75
2022-12-20T10:47:03.588Z,3.92
2022-12-20T10:50:15.567Z,4.15
2022-12-20T10:53:22.336Z,3.67
2022-12-20T10:56:27.346Z,3.50
2022-12-20T10:59:35.840Z,3.78
2022-12-20T11:02:41.924Z,3.45
2022-12-20T11:06:02.282Z,3.33
2022-12-20T11:09:23.950Z,3.30
2022-12-20T11:12:28.585Z,3.22
2022-12-20T11:15:33.997Z,3.13
2022-12-20T11:18:46.055Z,3.20
2022-12-20T11:21:55.156Z,3.13
2022-12-20T11:25:02.720Z,3.45
2022-12-20T11:28:27.585Z,3.10
2022-12-20T11:31:42.620Z,2.88
2022-12-20T11:34:55.782Z,3.45
2022-12-20T11:38:09.852Z,3.15
2022-12-20T11:41:21.235Z,3.05
2022-12-20T11:44:32.608Z,2.97
2022-12-20T11:47:45.730Z,3.63
2022-12-20T11:50:59.676Z,3.70
2022-12-20T11:54:05.756Z,3.67
2022-12-20T11:57:12.811Z,3.05
2022-12-20T12:00:17.500Z,2.90
2022-12-20T12:03:22.968Z,3.40
2022-12-20T12:06:27.958Z,2.90
2022-12-20T12:09:35.960Z,3.22
2022-12-20T12:12:41.353Z,3.40
2022-12-20T12:15:55.543Z,3.10
2022-12-20T12:19:00.044Z,2.85
2022-12-20T12:22:06.863Z,3.05
2022-12-20T12:25:23.297Z,3.00
2022-12-20T12:28:29.876Z,3.10
2022-12-20T12:31:38.256Z,3.13
2022-12-20T12:34:58.524Z,3.20
2022-12-20T12:38:18.930Z,3.10
2022-12-20T12:41:35.573Z,3.50
2022-12-20T12:44:43.200Z,3.10
2022-12-20T12:47:49.583Z,2.90
2022-12-20T12:50:53.945Z,2.83
2022-12-20T12:54:03.755Z,3.30
2022-12-20T12:57:13.445Z,3.70
2022-12-20T13:00:47.463Z,3.65
2022-12-20T13:04:27.369Z,3.80
2022-12-20T13:07:43.946Z,3.08
2022-12-20T13:14:49.979Z,3.58
2022-12-20T13:17:57.370Z,3.13
2022-12-20T13:21:21.295Z,2.38
2022-12-20T13:24:33.361Z,2.65
2022-12-20T13:27:39.229Z,3.00
2022-12-20T13:30:42.285Z,2.92
2022-12-20T13:33:49.002Z,2.55
2022-12-20T13:36:59.047Z,2.47
2022-12-20T13:40:01.963Z,2.63
2022-12-20T13:43:10.440Z,2.85
2022-12-20T13:46:17.268Z,2.47
2022-12-20T13:49:26.582Z,2.50
2022-12-20T13:52:33.248Z,2.53
2022-12-20T13:55:37.964Z,2.55
2022-12-20T13:58:47.167Z,2.53
2022-12-20T14:01:51.101Z,2.17
2022-12-20T14:04:59.230Z,2.65
2022-12-20T14:08:11.023Z,2.15
2022-12-20T14:11:14.843Z,2.50
2022-12-20T14:14:21.575Z,2.28
2022-12-20T14:17:28.512Z,2.03
2022-12-20T14:20:39.071Z,2.65
2022-12-20T14:23:43.611Z,2.45
2022-12-20T14:26:48.050Z,2.35
2022-12-20T14:29:55.236Z,2.33
2022-12-20T14:33:00.762Z,2.58
2022-12-20T14:36:11.000Z,2.30
2022-12-20T14:39:24.734Z,2.30
2022-12-20T14:42:30.839Z,2.15
2022-12-20T14:45:35.011Z,2.63
2022-12-20T14:48:37.908Z,4.57
2022-12-20T14:51:40.989Z,5.75
2022-12-20T14:58:24.041Z,4.68
2022-12-20T15:01:31.047Z,5.00
2022-12-20T15:04:36.887Z,4.40
2022-12-20T15:07:41.665Z,4.80
2022-12-20T15:10:49.502Z,4.40
2022-12-20T15:13:54.567Z,3.35
2022-12-20T15:17:02.372Z,4.68
2022-12-20T15:20:05.344Z,4.18
2022-12-20T15:23:20.008Z,3.58
2022-12-20T15:26:24.914Z,3.47
2022-12-20T15:30:30.534Z,2.67
2022-12-20T15:34:06.176Z,2.50
2022-12-20T15:37:26.328Z,2.20
2022-12-20T15:40:29.631Z,2.80
2022-12-20T15:43:44.541Z,2.72
2022-12-20T15:46:53.637Z,2.55
2022-12-20T15:49:59.426Z,2.50
2022-12-20T15:53:03.474Z,2.60
2022-12-20T15:56:06.275Z,2.88
2022-12-20T15:59:40.267Z,3.00
2022-12-20T16:02:34.078Z,2.35
2022-12-20T16:05:40.196Z,2.75
2022-12-20T16:09:01.285Z,2.88
2022-12-20T16:12:06.349Z,2.30
2022-12-20T16:15:20.718Z,2.28
2022-12-20T16:18:34.512Z,2.83
2022-12-20T16:22:29.059Z,2.65
2022-12-20T16:25:43.191Z,2.47
2022-12-20T16:28:53.997Z,2.80
2022-12-20T16:32:04.521Z,2.92
2022-12-20T16:35:07.376Z,2.63
2022-12-20T16:38:10.027Z,2.85
2022-12-20T16:41:15.142Z,2.47
2022-12-20T16:44:19.245Z,2.08
2022-12-20T16:47:23.066Z,2.97
2022-12-20T16:50:29.458Z,2.63
2022-12-20T16:54:02.089Z,2.55
2022-12-20T16:57:01.879Z,2.58
2022-12-20T17:00:05.189Z,2.25
2022-12-20T17:03:07.837Z,2.40
2022-12-20T17:06:13.369Z,2.67
2022-12-20T17:12:49.295Z,2.75
2022-12-20T17:15:52.884Z,2.22
2022-12-20T17:19:03.597Z,2.63
2022-12-20T17:22:24.316Z,2.75
2022-12-20T17:25:33.613Z,2.38
2022-12-20T17:28:41.715Z,2.88
2022-12-20T17:31:52.108Z,2.85
2022-12-20T17:35:03.797Z,2.17
2022-12-20T17:38:07.980Z,2.85
2022-12-20T17:41:50.972Z,2.78
2022-12-20T17:45:06.863Z,2.65
2022-12-20T17:48:13.295Z,2.55
2022-12-20T17:51:17.816Z,3.10
2022-12-20T17:54:36.608Z,2.63
2022-12-20T17:58:17.089Z,2.55
2022-12-20T18:01:20.925Z,2.78
2022-12-20T18:04:23.909Z,2.58
2022-12-20T18:07:30.166Z,3.08
2022-12-20T18:10:49.219Z,2.97
2022-12-20T18:13:56.486Z,2.42
2022-12-20T18:17:07.807Z,2.88
2022-12-20T18:21:00.759Z,2.80
2022-12-20T18:24:11.583Z,2.85
2022-12-20T18:27:14.906Z,2.53
2022-12-20T18:30:17.883Z,2.55
2022-12-20T18:33:21.903Z,2.28
2022-12-20T18:36:32.037Z,2.35
2022-12-20T18:39:49.966Z,2.63
2022-12-20T18:43:18.878Z,2.53
2022-12-20T18:46:30.108Z,2.80
2022-12-20T18:49:44.149Z,2.88
2022-12-20T18:52:55.377Z,3.20
2022-12-20T18:56:02.818Z,3.13
2022-12-20T18:59:20.093Z,2.50
2022-12-20T19:02:23.419Z,2.78
2022-12-20T19:05:40.030Z,2.50
2022-12-20T19:08:49.610Z,2.92
2022-12-20T19:12:07.635Z,2.83
2022-12-20T19:15:21.060Z,3.05
2022-12-20T19:19:05.333Z,2.90
2022-12-20T19:22:28.139Z,3.42
2022-12-20T19:25:35.648Z,3.05
2022-12-20T19:28:46.789Z,3.33
2022-12-20T19:32:35.792Z,2.53
2022-12-20T19:36:50.203Z,3.40
2022-12-20T19:39:58.116Z,4.43
2022-12-20T19:43:01.325Z,2.72
2022-12-20T19:46:28.391Z,2.70
2022-12-20T19:49:53.600Z,3.20
2022-12-20T19:53:27.743Z,3.78
2022-12-20T19:56:38.761Z,3.55
2022-12-20T19:59:55.690Z,2.95
2022-12-20T20:02:59.363Z,3.72
2022-12-20T20:06:02.418Z,3.85
2022-12-20T20:09:06.156Z,3.95
2022-12-20T20:12:16.399Z,3.65
2022-12-20T20:15:21.951Z,3.33
2022-12-20T20:18:26.987Z,3.38
2022-12-20T20:21:30.099Z,3.50
2022-12-20T20:24:35.334Z,4.07
2022-12-20T20:31:45.553Z,3.90
2022-12-20T20:34:51.993Z,3.25
2022-12-20T20:37:55.399Z,4.40
2022-12-20T20:41:14.524Z,3.72
2022-12-20T20:44:18.790Z,3.88
2022-12-20T20:47:21.653Z,4.28
2022-12-20T20:50:24.399Z,4.60
2022-12-20T20:53:33.090Z,4.25
2022-12-20T20:56:36.308Z,3.90
2022-12-20T20:59:40.404Z,3.42
2022-12-20T21:02:43.204Z,3.78
2022-12-20T21:06:32.763Z,4.07
2022-12-20T21:09:08.816Z,3.53
2022-12-20T21:12:11.672Z,5.05
2022-12-20T21:15:23.873Z,4.03
2022-12-20T21:18:27.175Z,4.57
2022-12-20T21:21:30.126Z,4.45
2022-12-20T21:24:32.769Z,4.00
2022-12-20T21:27:37.749Z,3.85
2022-12-20T21:30:42.078Z,4.55
2022-12-20T21:33:45.798Z,4.75
2022-12-20T21:36:48.574Z,3.83
2022-12-20T21:39:51.612Z,4.43
2022-12-20T21:42:54.216Z,4.40
2022-12-20T21:45:58.426Z,4.38
2022-12-20T21:49:01.130Z,4.70
2022-12-20T21:52:03.776Z,4.35
2022-12-20T21:55:06.547Z,3.90
2022-12-20T21:58:09.170Z,3.92
2022-12-20T22:01:14.569Z,3.88
2022-12-20T22:04:18.852Z,3.95
2022-12-20T22:07:21.716Z,3.78
2022-12-20T22:10:24.572Z,4.05
2022-12-20T22:13:27.640Z,3.88
2022-12-20T22:16:32.295Z,3.80
2022-12-20T22:19:36.111Z,4.43
2022-12-20T22:22:38.780Z,3.88
2022-12-20T22:25:41.627Z,4.40
2022-12-20T22:28:46.751Z,4.68
2022-12-20T22:31:52.487Z,4.97
2022-12-20T22:34:55.328Z,4.18
2022-12-20T22:37:58.652Z,4.78
2022-12-20T22:41:07.289Z,4.32
2022-12-20T22:44:09.939Z,4.65
2022-12-20T22:47:13.920Z,4.35
2022-12-20T22:50:16.865Z,4.10
2022-12-20T22:53:19.752Z,3.58
2022-12-20T22:56:23.386Z,3.83
2022-12-20T22:59:26.285Z,4.43
2022-12-20T23:02:30.676Z,3.63
2022-12-20T23:05:33.977Z,3.78
2022-12-20T23:08:37.710Z,2.90
2022-12-20T23:11:58.458Z,3.00
2022-12-20T23:15:19.915Z,2.85
2022-12-20T23:18:23.872Z,2.85
2022-12-20T23:21:44.550Z,3.25
2022-12-20T23:24:48.478Z,3.05
2022-12-20T23:27:55.708Z,3.00
2022-12-20T23:30:58.515Z,2.70
2022-12-20T23:34:02.948Z,2.78
2022-12-20T23:37:05.592Z,3.08
2022-12-20T23:40:09.321Z,3.45
2022-12-20T23:43:12.502Z,3.22
2022-12-20T23:46:15.976Z,3.50
2022-12-20T23:49:19.963Z,2.90
2022-12-20T23:52:25.592Z,2.92
2022-12-20T23:55:28.412Z,2.97
2022-12-20T23:58:31.530Z,3.13
